Time;durP1;ratioP1;P1;durP2;ratioP2;P2;SDS_P1;SDS_P2;PMS_P1;PMS_P2;Temp;Humidity;BMP_temperature;BMP_pressure;BME280_temperature;BME280_humidity;BME280_pressure;Samples;Min_cycle;Max_cycle;Signal;HPM_P1;HPM_P2
2022/02/07 00:02:01;;;;;;;12.95;3.85;;;;;;;3.70;80.71;97261.75;4878257;29;20382;-79
2022/02/07 00:04:34;;;;;;;12.07;4.70;;;;;;;3.72;81.02;97259.66;4877914;29;20410;-78
2022/02/07 00:07:00;;;;;;;11.10;4.18;;;;;;;3.60;80.75;97251.06;4874601;29;20059;-80
2022/02/07 00:09:25;;;;;;;9.45;3.42;;;;;;;3.61;80.91;97252.63;4877576;29;20486;-79
2022/02/07 00:11:51;;;;;;;4.40;2.38;;;;;;;3.69;80.69;97270.72;4875693;29;20037;-80
2022/02/07 00:14:16;;;;;;;4.90;2.75;;;;;;;3.72;80.44;97271.00;4877345;29;20679;-79
2022/02/07 00:16:43;;;;;;;7.85;1.80;;;;;;;3.69;80.74;97276.75;4860550;29;20478;-79
2022/02/07 00:19:12;;;;;;;3.67;1.40;;;;;;;3.60;80.86;97266.88;4877989;29;20033;-80
2022/02/07 00:21:38;;;;;;;5.07;1.35;;;;;;;3.69;80.46;97276.75;4867547;29;20048;-81
2022/02/07 00:24:03;;;;;;;3.58;1.45;;;;;;;3.55;80.73;97269.44;4880761;29;20060;-80
2022/02/07 00:26:29;;;;;;;3.55;1.75;;;;;;;3.55;80.53;97278.16;4864793;29;20037;-81
2022/02/07 00:28:54;;;;;;;4.43;1.45;;;;;;;3.48;80.96;97259.06;4863870;29;20040;-80
2022/02/07 00:31:19;;;;;;;6.80;1.42;;;;;;;3.56;80.92;97286.88;4876783;29;20029;-81
2022/02/07 00:33:45;;;;;;;6.88;1.50;;;;;;;3.34;80.86;97249.88;4868092;29;20155;-82
2022/02/07 00:36:13;;;;;;;5.85;1.67;;;;;;;3.35;80.71;97246.22;4868602;29;20147;-82
2022/02/07 00:38:40;;;;;;;4.88;1.70;;;;;;;3.40;80.39;97279.78;4881746;29;20033;-79
2022/02/07 00:41:21;;;;;;;4.55;1.02;;;;;;;3.31;80.52;97265.38;4878362;29;20077;-80
2022/02/07 00:43:53;;;;;;;1.85;1.23;;;;;;;3.46;80.63;97297.25;4880335;29;20037;-80
2022/02/07 00:46:24;;;;;;;2.50;0.98;;;;;;;3.49;80.17;97323.16;4872868;29;20036;-80
2022/02/07 00:48:49;;;;;;;5.63;1.10;;;;;;;3.44;80.60;97339.72;4872943;29;20061;-80
2022/02/07 00:51:15;;;;;;;2.13;1.33;;;;;;;3.41;80.57;97347.28;4881592;29;20036;-79
2022/02/07 00:53:40;;;;;;;7.13;2.03;;;;;;;3.40;80.22;97351.78;4875365;29;20070;-79
2022/02/07 00:56:06;;;;;;;5.75;1.35;;;;;;;3.25;80.54;97356.00;4878476;29;20041;-78
2022/02/07 00:58:32;;;;;;;2.90;1.42;;;;;;;3.28;80.50;97366.84;4883814;29;20029;-80
2022/02/07 01:00:57;;;;;;;5.70;2.28;;;;;;;3.34;80.62;97391.47;4865123;29;20032;-79
2022/02/07 01:03:23;;;;;;;4.10;2.08;;;;;;;3.33;80.80;97408.31;4879712;29;20041;-80
2022/02/07 01:05:49;;;;;;;3.33;1.52;;;;;;;3.02;80.38;97365.63;4867206;29;20035;-81
2022/02/07 01:08:18;;;;;;;6.45;1.48;;;;;;;3.23;80.66;97410.78;4885055;29;20498;-80
2022/02/07 01:11:43;;;;;;;4.65;1.05;;;;;;;3.25;80.38;97414.81;4886455;29;20045;-80
2022/02/07 01:13:49;;;;;;;7.57;1.75;;;;;;;3.23;80.11;97419.50;4885491;29;20052;-79
2022/02/07 01:56:59;;;;;;;3.05;1.48;;;;;;;2.93;80.84;97572.56;4842004;29;20570;-78
2022/02/07 01:59:25;;;;;;;5.70;1.55;;;;;;;2.74;80.51;97533.41;4857860;29;20053;-78
2022/02/07 02:01:51;;;;;;;6.00;1.38;;;;;;;3.06;80.71;97597.09;4876008;29;20044;-77
2022/02/07 02:04:16;;;;;;;7.63;1.80;;;;;;;3.04;80.56;97606.00;4875415;29;20037;-77
2022/02/07 02:06:42;;;;;;;5.40;1.55;;;;;;;2.99;80.32;97599.84;4877259;29;20405;-77
2022/02/07 02:09:07;;;;;;;11.93;1.92;;;;;;;3.04;80.76;97626.28;4882089;29;20048;-77
2022/02/07 02:11:35;;;;;;;3.55;1.48;;;;;;;3.03;80.48;97624.69;4881322;29;20147;-77
2022/02/07 02:14:19;;;;;;;4.88;2.08;;;;;;;2.90;80.84;97625.75;4879915;29;20402;-77
2022/02/07 02:33:43;;;;;;;8.48;1.50;;;;;;;2.84;81.43;97695.16;4886389;29;20043;-79
2022/02/07 02:36:15;;;;;;;11.20;1.63;;;;;;;3.02;81.26;97734.59;4882893;29;20052;-79
2022/02/07 02:46:29;;;;;;;2.33;1.10;;;;;;;2.99;81.20;97745.56;4875324;29;20383;-76
2022/02/07 02:49:00;;;;;;;0.68;0.60;;;;;;;2.93;81.46;97748.31;4876741;29;20085;-77
2022/02/07 02:51:26;;;;;;;0.70;0.60;;;;;;;2.91;80.87;97753.00;4874289;29;20037;-76
2022/02/07 02:53:51;;;;;;;2.15;0.70;;;;;;;2.90;81.24;97773.31;4876148;29;20044;-76
2022/02/07 02:56:17;;;;;;;2.90;0.85;;;;;;;2.94;80.88;97787.63;4877878;29;20104;-77
2022/02/07 02:58:42;;;;;;;2.20;0.90;;;;;;;2.95;80.51;97788.41;4876041;29;20048;-76
2022/02/07 03:01:07;;;;;;;2.70;0.80;;;;;;;2.94;80.50;97800.00;4873940;29;20048;-76
2022/02/07 03:03:33;;;;;;;2.00;0.80;;;;;;;2.90;80.44;97815.47;4875302;29;20043;-76
2022/02/07 03:05:58;;;;;;;3.20;0.80;;;;;;;2.85;80.69;97815.34;4874094;29;20041;-76
2022/02/07 03:08:23;;;;;;;6.45;1.13;;;;;;;2.92;80.90;97836.31;4874856;29;20047;-77
2022/02/07 03:11:01;;;;;;;4.90;1.50;;;;;;;2.86;80.64;97832.72;4874686;29;20033;-77
2022/02/07 03:18:36;;;;;;;5.43;1.77;;;;;;;2.70;81.39;97830.75;4874831;29;20446;-76
2022/02/07 03:21:02;;;;;;;5.00;1.25;;;;;;;2.84;80.78;97858.50;4873632;29;20033;-76
2022/02/07 03:23:27;;;;;;;4.35;1.17;;;;;;;2.54;81.26;97818.19;4873850;29;20526;-77
2022/02/07 03:25:54;;;;;;;2.42;1.20;;;;;;;2.64;80.82;97841.38;4874387;29;20029;-77
2022/02/07 03:28:22;;;;;;;7.57;1.65;;;;;;;2.79;80.99;97871.56;4873686;29;20550;-78
2022/02/07 03:30:48;;;;;;;7.35;1.30;;;;;;;2.72;81.05;97860.31;4875700;29;20156;-77
2022/02/07 03:33:14;;;;;;;6.30;1.42;;;;;;;2.79;80.91;97882.09;4875333;29;20115;-77
2022/02/07 03:35:39;;;;;;;3.40;2.13;;;;;;;2.66;81.09;97863.03;4876830;29;20088;-79
2022/02/07 03:38:06;;;;;;;7.60;1.80;;;;;;;2.84;80.82;97898.03;4876881;29;20037;-78
2022/02/07 03:40:32;;;;;;;8.60;1.80;;;;;;;2.84;80.51;97894.63;4878595;29;20782;-78
2022/02/07 03:42:57;;;;;;;3.75;1.65;;;;;;;2.80;80.97;97894.22;4875959;29;20041;-76
2022/02/07 03:45:22;;;;;;;6.13;1.45;;;;;;;2.88;80.72;97919.50;4876377;29;20131;-79
2022/02/07 03:47:48;;;;;;;5.15;1.70;;;;;;;2.83;80.94;97930.69;4874665;29;20458;-76
2022/02/07 03:50:13;;;;;;;8.80;1.70;;;;;;;2.81;80.73;97921.41;4875978;29;20390;-77
2022/02/07 03:52:38;;;;;;;11.93;2.55;;;;;;;2.92;80.47;97924.09;4875362;29;20120;-76
2022/02/07 03:55:05;;;;;;;5.32;1.55;;;;;;;2.91;80.52;97937.47;4875197;29;20071;-78
2022/02/07 03:57:30;;;;;;;8.05;1.83;;;;;;;2.78;80.77;97935.81;4875063;29;20084;-80
2022/02/07 03:59:56;;;;;;;6.07;1.60;;;;;;;2.81;81.22;97943.28;4865916;29;20204;-78
2022/02/07 04:02:21;;;;;;;5.15;1.40;;;;;;;2.82;81.02;97962.50;4876924;29;20124;-79
2022/02/07 04:04:54;;;;;;;5.95;1.85;;;;;;;2.82;80.70;97968.59;4875905;29;20044;-79
2022/02/07 04:07:20;;;;;;;6.22;2.60;;;;;;;2.74;80.72;97945.19;4875136;29;20047;-77
2022/02/07 04:09:50;;;;;;;10.48;1.77;;;;;;;2.77;80.72;97984.28;4876703;29;20033;-76
2022/02/07 04:12:20;;;;;;;13.40;2.50;;;;;;;2.80;80.40;97988.28;4876152;29;20474;-77
2022/02/07 04:14:45;;;;;;;8.55;2.25;;;;;;;2.81;80.66;98016.25;4875371;29;20116;-78
2022/02/07 04:17:15;;;;;;;9.93;2.38;;;;;;;2.79;80.68;98018.28;4879852;29;20064;-81
2022/02/07 04:19:41;;;;;;;11.25;2.10;;;;;;;2.77;80.90;98026.44;4878597;29;20037;-81
2022/02/07 04:22:08;;;;;;;10.25;2.20;;;;;;;2.75;80.96;98036.34;4891018;29;20029;-79
2022/02/07 04:24:34;;;;;;;14.40;2.45;;;;;;;2.54;81.45;98004.34;4876925;29;20021;-76
2022/02/07 04:27:00;;;;;;;11.25;2.55;;;;;;;2.79;80.81;98037.56;4874671;29;20045;-77
2022/02/07 04:29:25;;;;;;;7.30;2.15;;;;;;;2.81;80.59;98032.88;4875439;29;20037;-78
2022/02/07 04:31:51;;;;;;;10.15;2.80;;;;;;;2.70;80.73;98032.78;4876256;29;20097;-79
2022/02/07 04:34:16;;;;;;;9.50;2.17;;;;;;;2.65;81.02;98033.44;4875194;29;20029;-79
2022/02/07 04:36:44;;;;;;;7.05;1.67;;;;;;;2.70;80.60;98057.31;4878438;29;20438;-80
2022/02/07 04:39:09;;;;;;;8.68;2.35;;;;;;;2.53;80.80;98040.44;4875537;29;20559;-78
2022/02/07 04:41:35;;;;;;;9.88;2.00;;;;;;;2.76;80.75;98064.31;4871206;29;20033;-78
2022/02/07 05:02:28;;;;;;;6.60;1.95;;;;;;;2.70;81.42;98115.25;4878004;29;20048;-79
2022/02/07 05:05:18;;;;;;;10.63;2.20;;;;;;;2.79;81.09;98113.16;4868037;29;20070;-79
2022/02/07 05:15:55;;;;;;;14.80;2.67;;;;;;;2.71;81.43;98151.09;4865197;29;20068;-77
2022/02/07 05:18:22;;;;;;;10.32;3.03;;;;;;;2.74;81.50;98176.22;4871049;29;20057;-77
2022/02/07 05:20:47;;;;;;;12.27;2.63;;;;;;;2.70;81.70;98172.41;4858606;29;20034;-77
2022/02/07 05:23:13;;;;;;;15.63;3.00;;;;;;;2.73;81.78;98191.22;4849396;29;20513;-77
2022/02/07 05:25:39;;;;;;;10.40;2.17;;;;;;;2.71;81.85;98181.94;4864894;29;20121;-77
2022/02/07 05:28:05;;;;;;;9.30;2.35;;;;;;;2.72;81.95;98192.25;4867798;29;20028;-77
2022/02/07 05:30:30;;;;;;;10.18;2.85;;;;;;;2.64;81.79;98205.69;4858802;29;20041;-77
2022/02/07 05:32:56;;;;;;;13.48;2.38;;;;;;;2.79;81.74;98208.00;4831784;29;20391;-77
2022/02/07 05:35:21;;;;;;;4.30;2.45;;;;;;;2.77;81.36;98216.13;4855070;29;20069;-77
2022/02/07 05:37:47;;;;;;;12.00;4.85;;;;;;;2.83;81.56;98232.91;4856241;29;20117;-77
2022/02/07 05:40:24;;;;;;;8.65;2.85;;;;;;;2.79;81.60;98229.91;4856810;29;20072;-77
2022/02/07 05:42:49;;;;;;;13.43;2.72;;;;;;;2.76;81.33;98230.31;4851549;29;20034;-77
2022/02/07 05:45:15;;;;;;;9.85;2.65;;;;;;;2.72;81.62;98231.78;4864917;29;20045;-77
2022/02/07 05:47:40;;;;;;;10.77;2.08;;;;;;;2.81;81.50;98254.22;4839320;29;20037;-76
2022/02/07 05:50:06;;;;;;;8.60;2.97;;;;;;;2.82;81.46;98266.34;4870029;29;20659;-77
2022/02/07 05:52:31;;;;;;;11.40;2.40;;;;;;;2.80;81.88;98281.56;4859930;29;20045;-76
2022/02/07 05:54:57;;;;;;;24.15;2.45;;;;;;;2.78;81.64;98278.34;4860217;29;20061;-75
2022/02/07 05:57:22;;;;;;;13.23;2.78;;;;;;;2.78;81.58;98290.69;4842900;29;20041;-76
2022/02/07 05:59:47;;;;;;;6.93;2.53;;;;;;;2.88;81.73;98296.31;4844462;29;20033;-77
2022/02/07 06:02:13;;;;;;;10.48;2.55;;;;;;;2.85;81.65;98302.00;4841388;29;20551;-80
2022/02/07 06:04:38;;;;;;;8.60;2.17;;;;;;;2.76;81.84;98305.91;4859321;29;20508;-83
2022/02/07 06:07:04;;;;;;;10.80;2.45;;;;;;;2.79;82.01;98305.50;4859533;29;20499;-77
2022/02/07 06:09:29;;;;;;;5.57;2.17;;;;;;;2.78;82.10;98304.69;4860226;29;20054;-76
2022/02/07 06:11:56;;;;;;;6.20;1.90;;;;;;;2.69;81.88;98313.84;4859265;29;20093;-77
2022/02/07 06:14:21;;;;;;;9.75;1.98;;;;;;;2.77;82.15;98318.09;4861878;29;20036;-79
2022/02/07 06:16:46;;;;;;;5.72;1.85;;;;;;;2.77;82.21;98337.34;4861537;29;20057;-79
2022/02/07 06:19:12;;;;;;;7.97;2.47;;;;;;;2.75;81.96;98338.56;4859048;29;20035;-78
2022/02/07 06:21:38;;;;;;;11.88;2.17;;;;;;;2.79;82.37;98352.94;4849611;29;20021;-79
2022/02/07 06:24:04;;;;;;;11.20;2.33;;;;;;;2.77;82.24;98345.25;4862459;29;20026;-79
2022/02/07 06:26:30;;;;;;;22.25;2.83;;;;;;;2.77;82.45;98350.50;4862027;29;20089;-78
2022/02/07 06:28:56;;;;;;;6.50;2.75;;;;;;;2.77;82.17;98366.31;4861574;29;20101;-79
2022/02/07 06:31:22;;;;;;;8.82;2.55;;;;;;;2.78;82.10;98360.03;4861938;29;20756;-79
2022/02/07 06:33:47;;;;;;;5.85;3.08;;;;;;;2.80;82.77;98373.78;4859111;29;20108;-79
2022/02/07 06:36:13;;;;;;;13.45;3.40;;;;;;;2.80;82.49;98389.59;4840391;29;20405;-77
2022/02/07 06:38:39;;;;;;;15.70;3.40;;;;;;;2.76;82.74;98382.31;4853614;29;20461;-77
2022/02/07 06:41:04;;;;;;;16.80;3.17;;;;;;;2.78;82.14;98394.28;4860432;29;20257;-77
2022/02/07 06:43:30;;;;;;;11.10;3.20;;;;;;;2.82;82.30;98405.19;4855975;29;20394;-77
2022/02/07 06:45:55;;;;;;;5.22;2.30;;;;;;;2.88;82.61;98413.06;4867437;29;20043;-77
2022/02/07 06:48:20;;;;;;;12.35;2.95;;;;;;;2.86;82.26;98414.31;4838741;29;20036;-77
2022/02/07 06:50:46;;;;;;;8.52;2.00;;;;;;;2.87;82.18;98440.47;4860661;29;20028;-77
2022/02/07 06:53:11;;;;;;;14.88;2.47;;;;;;;2.88;82.37;98452.59;4862593;29;20124;-76
2022/02/07 06:55:37;;;;;;;19.90;3.45;;;;;;;2.90;82.37;98463.78;4850481;29;20029;-76
2022/02/07 06:58:02;;;;;;;9.73;2.63;;;;;;;2.93;82.52;98467.78;4858111;29;20507;-76
2022/02/07 07:00:28;;;;;;;9.38;2.63;;;;;;;2.86;82.38;98452.00;4857850;29;20052;-75
2022/02/07 07:02:53;;;;;;;21.67;3.00;;;;;;;2.96;82.55;98473.47;4856233;29;20030;-75
2022/02/07 07:05:22;;;;;;;9.23;3.55;;;;;;;2.87;82.76;98474.72;4856060;29;20086;-76
2022/02/07 07:07:48;;;;;;;10.48;2.25;;;;;;;2.85;82.20;98471.47;4856661;29;20041;-76
2022/02/07 07:10:14;;;;;;;13.70;2.78;;;;;;;2.87;82.38;98463.34;4857442;29;20064;-76
2022/02/07 07:12:42;;;;;;;14.45;3.20;;;;;;;2.82;83.21;98469.25;4857496;29;20029;-75
2022/02/07 07:15:26;;;;;;;12.68;3.55;;;;;;;2.94;82.42;98477.31;4854196;29;20029;-76
2022/02/07 07:17:51;;;;;;;12.63;3.33;;;;;;;2.91;82.56;98486.47;4853897;29;20037;-75
2022/02/07 07:20:17;;;;;;;11.43;2.80;;;;;;;2.95;82.69;98521.09;4855053;29;20025;-76
2022/02/07 07:22:44;;;;;;;6.03;2.53;;;;;;;2.90;82.40;98515.66;4837215;29;20041;-75
2022/02/07 07:25:14;;;;;;;11.40;2.05;;;;;;;2.98;82.69;98518.88;4854705;29;20033;-77
2022/02/07 07:27:55;;;;;;;9.40;2.30;;;;;;;2.94;82.93;98527.41;4854593;29;20134;-76
2022/02/07 07:30:24;;;;;;;7.50;2.42;;;;;;;2.99;82.59;98514.44;4840138;29;20062;-77
2022/02/07 07:32:49;;;;;;;8.70;1.98;;;;;;;2.90;82.71;98532.28;4853679;29;20584;-77
2022/02/07 07:35:14;;;;;;;6.38;2.10;;;;;;;2.92;82.59;98542.63;4843793;29;20029;-76
2022/02/07 07:37:40;;;;;;;6.38;1.50;;;;;;;2.92;82.97;98561.06;4860745;29;20048;-76
2022/02/07 07:40:06;;;;;;;4.05;1.40;;;;;;;2.99;82.55;98565.28;4867885;29;20037;-76
2022/02/07 07:42:31;;;;;;;4.65;1.60;;;;;;;2.96;82.82;98564.91;4856933;29;20081;-76
2022/02/07 07:44:57;;;;;;;4.00;1.80;;;;;;;3.04;82.56;98583.94;4852830;29;20037;-76
2022/02/07 07:47:27;;;;;;;5.15;1.42;;;;;;;3.00;82.49;98579.28;4848985;29;20041;-76
2022/02/07 07:49:59;;;;;;;7.07;1.92;;;;;;;3.07;82.55;98597.72;4849048;29;20361;-76
2022/02/07 07:52:46;;;;;;;5.03;1.80;;;;;;;3.06;82.37;98598.75;4853435;29;20033;-76
2022/02/07 08:03:08;;;;;;;7.47;2.92;;;;;;;3.09;82.64;98619.41;4860995;29;21063;-78
2022/02/07 08:08:08;;;;;;;6.22;1.60;;;;;;;3.08;82.73;98649.44;4856349;29;20528;-78
2022/02/07 08:10:50;;;;;;;7.35;1.65;;;;;;;3.00;82.95;98659.19;4854023;29;20040;-78
2022/02/07 08:13:17;;;;;;;8.77;2.40;;;;;;;3.05;83.15;98661.22;4857913;29;20140;-78
2022/02/07 08:15:43;;;;;;;7.03;2.25;;;;;;;3.07;82.59;98661.00;4857522;29;20030;-78
2022/02/07 08:18:09;;;;;;;9.30;2.33;;;;;;;3.04;82.64;98673.56;4857028;29;20063;-78
2022/02/07 08:20:34;;;;;;;8.35;2.30;;;;;;;3.16;82.21;98673.78;4860768;29;20033;-78
2022/02/07 08:23:03;;;;;;;17.75;2.95;;;;;;;3.14;83.10;98662.63;4859229;29;20044;-78
2022/02/07 08:25:29;;;;;;;4.95;2.00;;;;;;;3.14;82.95;98675.81;4858165;29;20082;-79
2022/02/07 08:27:54;;;;;;;11.65;2.65;;;;;;;3.19;82.94;98689.16;4853670;29;20034;-78
2022/02/07 08:30:19;;;;;;;8.68;2.47;;;;;;;3.17;82.34;98688.56;4858066;29;20044;-78
2022/02/07 08:32:45;;;;;;;11.68;3.65;;;;;;;3.24;82.72;98692.00;4843617;29;20040;-78
2022/02/07 08:35:11;;;;;;;7.72;2.40;;;;;;;3.30;82.61;98698.31;4860057;29;20033;-78
2022/02/07 08:37:37;;;;;;;6.20;2.28;;;;;;;3.33;82.73;98697.88;4851162;29;20029;-79
2022/02/07 08:40:03;;;;;;;10.55;3.15;;;;;;;3.37;82.53;98707.00;4856270;29;20021;-78
2022/02/07 08:42:28;;;;;;;18.88;3.13;;;;;;;3.40;82.61;98711.88;4850033;29;20037;-78
2022/02/07 08:44:53;;;;;;;18.25;4.38;;;;;;;3.46;82.76;98714.50;4854905;29;20037;-78
2022/02/07 08:47:18;;;;;;;11.90;4.43;;;;;;;3.45;82.73;98717.34;4858961;29;20033;-78
2022/02/07 08:49:44;;;;;;;8.68;2.95;;;;;;;3.47;82.77;98728.50;4841801;29;20037;-78
2022/02/07 08:52:10;;;;;;;13.07;3.45;;;;;;;3.48;82.22;98727.47;4855749;29;20066;-78
2022/02/07 08:54:36;;;;;;;11.60;3.40;;;;;;;3.52;82.69;98755.06;4859248;29;20034;-78
2022/02/07 08:57:16;;;;;;;10.70;2.50;;;;;;;3.54;82.41;98769.66;4851785;29;20030;-78
2022/02/07 08:59:57;;;;;;;9.65;2.83;;;;;;;3.50;82.44;98767.66;4858888;29;20037;-78
2022/02/07 09:05:16;;;;;;;15.18;3.28;;;;;;;3.59;82.25;98788.34;4855519;29;20048;-78
2022/02/07 09:07:48;;;;;;;15.77;3.30;;;;;;;3.57;82.23;98800.94;4859491;29;20546;-78
2022/02/07 09:10:13;;;;;;;17.25;3.70;;;;;;;3.56;82.97;98799.31;4858456;29;20538;-78
2022/02/07 09:12:42;;;;;;;21.45;3.65;;;;;;;3.67;81.76;98821.63;4856379;29;20041;-78
2022/02/07 09:15:29;;;;;;;18.10;3.65;;;;;;;3.69;82.65;98824.88;4851151;29;20096;-75
2022/02/07 09:17:54;;;;;;;17.98;3.92;;;;;;;3.67;81.87;98829.53;4851549;29;20029;-75
2022/02/07 09:20:20;;;;;;;17.00;4.63;;;;;;;3.70;82.69;98842.31;4849025;29;20040;-76
2022/02/07 09:22:47;;;;;;;11.82;3.30;;;;;;;3.67;82.76;98837.44;4850921;29;20042;-75
2022/02/07 09:25:13;;;;;;;10.80;2.97;;;;;;;3.71;82.41;98838.69;4839266;29;20491;-76
2022/02/07 09:27:38;;;;;;;7.00;2.90;;;;;;;3.76;82.38;98852.88;4857556;29;20527;-75
2022/02/07 09:30:06;;;;;;;12.65;3.55;;;;;;;3.73;82.04;98861.19;4855489;29;20037;-76
2022/02/07 09:32:35;;;;;;;12.43;3.55;;;;;;;3.81;81.90;98860.19;4857195;29;20037;-75
2022/02/07 09:35:01;;;;;;;10.63;3.40;;;;;;;3.89;81.75;98875.03;4859466;29;20033;-75
2022/02/07 09:37:26;;;;;;;17.17;3.75;;;;;;;3.88;81.70;98868.09;4854014;29;20546;-76
2022/02/07 09:39:51;;;;;;;9.20;3.00;;;;;;;3.94;82.00;98877.84;4851274;29;20117;-76
2022/02/07 09:42:17;;;;;;;16.48;3.72;;;;;;;3.89;81.88;98870.53;4857120;29;20042;-76
2022/02/07 09:44:49;;;;;;;18.23;4.53;;;;;;;4.00;81.95;98896.31;4851027;29;20072;-76
2022/02/07 09:47:15;;;;;;;11.18;3.83;;;;;;;4.00;81.70;98896.31;4856215;29;20323;-76
2022/02/07 09:49:42;;;;;;;21.98;3.83;;;;;;;3.98;82.03;98893.06;4859268;29;20410;-75
2022/02/07 09:52:09;;;;;;;13.90;3.80;;;;;;;4.06;81.64;98910.53;4859911;29;20479;-76
2022/02/07 09:54:35;;;;;;;12.68;4.05;;;;;;;4.05;81.98;98915.00;4859015;29;20137;-76
2022/02/07 09:57:00;;;;;;;14.88;3.42;;;;;;;4.11;81.77;98931.84;4859348;29;20033;-76
2022/02/07 09:59:29;;;;;;;23.15;3.78;;;;;;;4.10;82.27;98932.88;4859732;29;20100;-76
2022/02/07 10:01:57;;;;;;;17.75;5.15;;;;;;;4.17;81.51;98960.09;4858019;29;20117;-75
2022/02/07 10:04:28;;;;;;;15.80;3.45;;;;;;;4.20;81.47;98970.22;4851652;29;20033;-75
2022/02/07 10:07:50;;;;;;;19.05;4.10;;;;;;;4.20;81.09;98978.97;4853679;29;20033;-76
2022/02/07 10:12:35;;;;;;;17.83;4.10;;;;;;;4.20;80.84;98996.66;4855009;29;20052;-76
2022/02/07 10:17:38;;;;;;;20.67;4.13;;;;;;;4.16;80.36;98998.91;4840339;29;20110;-76
2022/02/07 10:34:30;;;;;;;9.40;2.95;;;;;;;4.25;80.25;99034.66;4857160;29;20562;-76
2022/02/07 10:34:46;;;;;;;18.23;4.65;;;;;;;4.19;80.35;99040.78;4852679;29;20096;-76
2022/02/07 10:40:34;;;;;;;20.98;4.30;;;;;;;4.35;79.71;99060.66;4857716;29;20052;-76
2022/02/07 10:45:56;;;;;;;21.33;4.07;;;;;;;4.42;78.82;99064.13;4859020;29;20037;-76
2022/02/07 10:48:37;;;;;;;22.17;5.18;;;;;;;4.44;79.26;99077.94;4866843;29;20037;-76
2022/02/07 10:51:05;;;;;;;21.70;3.67;;;;;;;4.46;78.68;99079.38;4857594;29;20047;-76
2022/02/07 10:53:34;;;;;;;16.25;4.30;;;;;;;4.52;78.62;99085.69;4858376;29;20030;-76
2022/02/07 10:56:01;;;;;;;22.13;4.20;;;;;;;4.48;79.07;99087.91;4858486;29;20037;-76
2022/02/07 10:58:26;;;;;;;20.77;5.03;;;;;;;4.57;78.74;99088.50;4858272;29;20034;-76
2022/02/07 11:00:58;;;;;;;24.35;5.07;;;;;;;4.57;78.79;99091.97;4859440;29;20051;-76
2022/02/07 11:03:26;;;;;;;24.85;5.40;;;;;;;4.63;78.73;99119.41;4841399;29;20043;-75
2022/02/07 11:05:56;;;;;;;18.38;4.75;;;;;;;4.65;78.55;99108.66;4856569;29;20034;-76
2022/02/07 11:08:29;;;;;;;28.63;5.07;;;;;;;4.61;78.38;99096.88;4861164;29;20037;-79
2022/02/07 11:14:36;;;;;;;20.38;4.57;;;;;;;4.56;78.34;99098.25;4858912;29;20061;-80
2022/02/07 11:19:49;;;;;;;21.40;4.15;;;;;;;4.67;77.84;99104.78;4859273;29;20029;-80
2022/02/07 11:25:27;;;;;;;16.40;4.97;;;;;;;4.63;77.69;99114.13;4864861;29;20089;-79
2022/02/07 11:27:58;;;;;;;24.92;5.63;;;;;;;4.66;77.95;99124.28;4870090;29;20491;-79
2022/02/07 11:30:50;;;;;;;24.10;5.13;;;;;;;4.72;78.16;99136.69;4861025;29;20113;-79
2022/02/07 11:36:26;;;;;;;21.10;5.35;;;;;;;4.76;78.51;99137.91;4865196;29;20094;-79
2022/02/07 11:39:17;;;;;;;19.17;4.78;;;;;;;4.90;78.01;99157.22;4863981;29;20039;-79
2022/02/07 11:42:03;;;;;;;25.45;5.45;;;;;;;4.96;78.09;99149.28;4860695;29;20049;-79
2022/02/07 11:44:38;;;;;;;15.73;4.05;;;;;;;4.98;77.55;99143.81;4846874;29;20491;-79
2022/02/07 11:47:17;;;;;;;27.98;5.25;;;;;;;5.02;76.93;99153.75;4862958;29;20048;-79
2022/02/07 11:49:47;;;;;;;28.85;6.38;;;;;;;4.99;76.33;99148.91;4859362;29;20029;-79
2022/02/07 11:52:44;;;;;;;25.80;5.18;;;;;;;5.07;76.54;99161.09;4863215;29;20037;-79
2022/02/07 11:55:12;;;;;;;;;;;;;;;5.09;76.65;99167.81;4860771;29;20040;-79
2022/02/07 11:57:41;;;;;;;21.10;4.60;;;;;;;5.05;76.04;99147.25;4867142;29;19927;-79
2022/02/07 12:00:12;;;;;;;25.52;5.13;;;;;;;5.03;76.17;99144.00;4853551;29;20028;-79
2022/02/07 12:02:41;;;;;;;20.08;4.50;;;;;;;5.09;75.75;99148.47;4870629;29;20036;-79
2022/02/07 12:05:10;;;;;;;22.70;4.82;;;;;;;5.12;76.37;99140.13;4849426;29;20033;-79
2022/02/07 12:07:38;;;;;;;28.67;5.75;;;;;;;5.19;76.02;99156.81;4861409;29;20062;-79
2022/02/07 12:12:43;;;;;;;23.10;4.68;;;;;;;5.23;75.66;99140.31;4863631;29;20042;-78
2022/02/07 12:15:11;;;;;;;25.35;5.70;;;;;;;5.23;75.19;99158.00;4869472;29;20056;-79
2022/02/07 12:17:43;;;;;;;29.65;6.80;;;;;;;5.04;75.49;99133.22;4862163;29;21089;-79
2022/02/07 12:20:11;;;;;;;24.15;5.70;;;;;;;5.27;75.54;99152.09;4853951;29;20060;-80
2022/02/07 12:23:11;;;;;;;16.85;4.13;;;;;;;5.22;75.11;99157.19;4874545;29;20032;-79
2022/02/07 12:25:48;;;;;;;33.58;5.07;;;;;;;5.17;75.10;99150.91;4855032;29;20047;-80
2022/02/07 12:28:29;;;;;;;24.13;5.30;;;;;;;5.09;74.78;99162.50;4869163;29;20031;-79
2022/02/07 12:31:09;;;;;;;23.05;6.38;;;;;;;5.14;74.69;99172.47;4859446;29;20025;-79
2022/02/07 12:33:36;;;;;;;26.83;5.80;;;;;;;5.18;74.81;99186.91;4878042;29;20120;-80
2022/02/07 12:36:03;;;;;;;32.03;5.82;;;;;;;5.05;75.18;99171.88;4858884;29;20094;-79
2022/02/07 12:38:33;;;;;;;25.77;4.25;;;;;;;5.10;74.58;99181.84;4863311;29;20040;-79
2022/02/07 12:41:34;;;;;;;22.98;5.18;;;;;;;5.09;74.47;99178.38;4858913;29;20034;-80
2022/02/07 12:44:47;;;;;;;21.27;5.82;;;;;;;5.07;74.32;99182.25;4859782;29;20033;-79
2022/02/07 12:47:57;;;;;;;19.80;4.97;;;;;;;4.88;75.02;99160.09;4850311;29;20062;-79
2022/02/07 12:50:56;;;;;;;20.65;4.85;;;;;;;4.92;74.88;99168.41;4860810;29;20045;-80
2022/02/07 12:54:38;;;;;;;24.35;5.25;;;;;;;5.10;74.40;99210.94;4859577;29;20034;-79
2022/02/07 12:58:00;;;;;;;22.08;4.65;;;;;;;5.10;74.35;99214.41;4821466;29;20225;-80
2022/02/07 13:01:08;;;;;;;17.45;5.57;;;;;;;5.13;74.46;99210.56;4819599;29;20040;-79
2022/02/07 13:07:38;;;;;;;15.82;4.10;;;;;;;4.99;73.84;99195.69;4825182;29;20056;-79
2022/02/07 13:10:38;;;;;;;17.02;3.45;;;;;;;5.17;73.24;99212.59;4809537;29;20045;-79
2022/02/07 13:13:30;;;;;;;23.40;4.60;;;;;;;5.02;72.72;99182.06;4809633;29;20047;-78
2022/02/07 13:16:51;;;;;;;17.40;4.40;;;;;;;5.16;72.68;99218.88;4799363;29;20035;-80
2022/02/07 13:20:05;;;;;;;20.58;4.05;;;;;;;5.06;71.91;99176.16;4812534;29;20041;-79
2022/02/07 13:23:23;;;;;;;20.80;5.05;;;;;;;5.15;72.06;99174.94;4774237;30;20092;-80
2022/02/07 13:30:22;;;;;;;24.55;4.50;;;;;;;5.56;72.21;99217.00;4804216;29;20285;-80
2022/02/07 13:33:08;;;;;;;17.02;4.70;;;;;;;5.67;71.05;99203.13;4769259;29;20043;-79
2022/02/07 13:35:59;;;;;;;18.48;4.93;;;;;;;5.69;70.90;99198.44;4788302;29;20433;-80
2022/02/07 13:38:33;;;;;;;22.27;4.25;;;;;;;5.72;70.45;99215.75;4787196;29;20100;-78
2022/02/07 13:41:39;;;;;;;15.57;3.78;;;;;;;5.75;69.84;99208.19;4790404;29;20081;-78
2022/02/07 13:44:54;;;;;;;22.00;5.38;;;;;;;5.76;69.82;99209.81;4790093;29;20062;-80
2022/02/07 13:47:43;;;;;;;16.30;3.65;;;;;;;5.72;70.36;99216.53;4791508;29;20077;-79
2022/02/07 13:50:36;;;;;;;23.98;5.07;;;;;;;5.74;70.62;99221.63;4805691;29;20381;-79
2022/02/07 13:53:06;;;;;;;20.55;4.28;;;;;;;5.83;70.96;99231.00;4865566;29;20120;-79
2022/02/07 13:55:39;;;;;;;17.58;4.05;;;;;;;5.89;70.81;99224.88;4851586;29;20040;-79
2022/02/07 13:58:58;;;;;;;26.95;6.18;;;;;;;5.99;70.09;99231.38;4867312;29;20045;-79
2022/02/07 14:01:47;;;;;;;;;;;;;;;6.07;68.72;99228.47;4868896;29;20097;-79
2022/02/07 14:04:24;;;;;;;16.65;4.22;;;;;;;5.89;68.50;99223.06;4851938;29;19920;-79
2022/02/07 14:07:10;;;;;;;15.07;3.15;;;;;;;6.03;69.25;99248.47;4866367;29;20376;-79
2022/02/07 14:09:40;;;;;;;12.57;4.35;;;;;;;5.97;68.59;99249.31;4868253;29;20036;-79
2022/02/07 14:12:07;;;;;;;13.02;2.55;;;;;;;5.97;68.18;99265.19;4862439;29;20415;-79
2022/02/07 14:14:35;;;;;;;13.77;3.58;;;;;;;5.98;68.09;99260.72;4865305;29;20041;-78
2022/02/07 14:17:05;;;;;;;14.23;3.65;;;;;;;5.91;67.89;99249.31;4865129;29;20029;-78
2022/02/07 14:19:44;;;;;;;10.20;3.08;;;;;;;6.10;68.34;99282.06;4867049;29;20042;-79
2022/02/07 14:22:10;;;;;;;20.73;4.13;;;;;;;6.13;68.49;99265.75;4866524;29;20090;-79
2022/02/07 14:24:37;;;;;;;26.85;5.53;;;;;;;6.14;68.12;99275.34;4863574;29;20515;-79
2022/02/07 14:27:03;;;;;;;12.02;3.38;;;;;;;6.22;67.75;99296.31;4867068;29;20029;-78
2022/02/07 14:29:29;;;;;;;13.10;3.78;;;;;;;6.21;68.25;99302.63;4864687;29;20038;-78
2022/02/07 14:31:54;;;;;;;16.02;3.78;;;;;;;6.11;67.60;99284.53;4863059;29;20392;-79
2022/02/07 14:34:19;;;;;;;25.33;5.28;;;;;;;6.16;67.50;99295.28;4862105;29;20395;-79